sensor_id;sensor_type;location;lat;lon;timestamp;P1;durP1;ratioP1;P2;durP2;ratioP2
7253;SDS011;4060;49.186;9.226;2022-07-06T00:01:41;1.88;;;1.20;;
7253;SDS011;4060;49.186;9.226;2022-07-06T00:04:11;1.80;;;1.42;;
7253;SDS011;4060;49.186;9.226;2022-07-06T00:06:40;1.23;;;1.13;;
7253;SDS011;4060;49.186;9.226;2022-07-06T00:09:10;1.40;;;1.30;;
7253;SDS011;4060;49.186;9.226;2022-07-06T00:11:39;1.38;;;1.20;;
7253;SDS011;4060;49.186;9.226;2022-07-06T00:14:09;1.73;;;1.52;;
7253;SDS011;4060;49.186;9.226;2022-07-06T00:16:41;1.88;;;1.67;;
7253;SDS011;4060;49.186;9.226;2022-07-06T00:19:11;1.55;;;1.35;;
7253;SDS011;4060;49.186;9.226;2022-07-06T00:21:40;2.42;;;1.40;;
7253;SDS011;4060;49.186;9.226;2022-07-06T00:24:10;1.83;;;1.20;;
7253;SDS011;4060;49.186;9.226;2022-07-06T00:26:39;2.90;;;1.60;;
7253;SDS011;4060;49.186;9.226;2022-07-06T00:29:09;1.50;;;1.40;;
7253;SDS011;4060;49.186;9.226;2022-07-06T00:31:40;1.50;;;1.40;;
7253;SDS011;4060;49.186;9.226;2022-07-06T00:34:10;1.60;;;1.50;;
7253;SDS011;4060;49.186;9.226;2022-07-06T00:36:40;1.60;;;1.35;;
7253;SDS011;4060;49.186;9.226;2022-07-06T00:39:09;1.75;;;1.20;;
7253;SDS011;4060;49.186;9.226;2022-07-06T00:41:39;1.48;;;1.38;;
7253;SDS011;4060;49.186;9.226;2022-07-06T00:44:09;2.67;;;1.58;;
7253;SDS011;4060;49.186;9.226;2022-07-06T00:46:40;1.70;;;1.60;;
7253;SDS011;4060;49.186;9.226;2022-07-06T00:49:09;1.60;;;1.50;;
7253;SDS011;4060;49.186;9.226;2022-07-06T00:52:00;1.42;;;1.33;;
7253;SDS011;4060;49.186;9.226;2022-07-06T00:54:31;1.75;;;1.40;;
7253;SDS011;4060;49.186;9.226;2022-07-06T00:57:02;2.17;;;1.42;;
7253;SDS011;4060;49.186;9.226;2022-07-06T00:59:32;1.50;;;1.40;;
7253;SDS011;4060;49.186;9.226;2022-07-06T01:02:05;2.25;;;1.40;;
7253;SDS011;4060;49.186;9.226;2022-07-06T01:04:34;1.67;;;1.58;;
7253;SDS011;4060;49.186;9.226;2022-07-06T01:07:03;1.60;;;1.50;;
7253;SDS011;4060;49.186;9.226;2022-07-06T01:09:33;1.35;;;1.25;;
7253;SDS011;4060;49.186;9.226;2022-07-06T01:12:03;1.75;;;1.50;;
7253;SDS011;4060;49.186;9.226;2022-07-06T01:14:33;1.92;;;1.50;;
7253;SDS011;4060;49.186;9.226;2022-07-06T01:17:08;1.70;;;1.60;;
7253;SDS011;4060;49.186;9.226;2022-07-06T01:19:39;1.50;;;1.40;;
7253;SDS011;4060;49.186;9.226;2022-07-06T01:22:10;1.73;;;1.42;;
7253;SDS011;4060;49.186;9.226;2022-07-06T01:24:40;1.80;;;1.70;;
7253;SDS011;4060;49.186;9.226;2022-07-06T01:27:11;2.15;;;1.67;;
7253;SDS011;4060;49.186;9.226;2022-07-06T01:29:40;1.98;;;1.50;;
7253;SDS011;4060;49.186;9.226;2022-07-06T01:32:11;3.17;;;1.50;;
7253;SDS011;4060;49.186;9.226;2022-07-06T01:34:40;1.65;;;1.40;;
7253;SDS011;4060;49.186;9.226;2022-07-06T01:37:12;1.60;;;1.50;;
7253;SDS011;4060;49.186;9.226;2022-07-06T01:39:41;1.33;;;1.23;;
7253;SDS011;4060;49.186;9.226;2022-07-06T01:42:11;1.55;;;1.40;;
7253;SDS011;4060;49.186;9.226;2022-07-06T01:44:41;2.15;;;1.33;;
7253;SDS011;4060;49.186;9.226;2022-07-06T01:47:10;2.33;;;1.60;;
7253;SDS011;4060;49.186;9.226;2022-07-06T01:49:40;1.55;;;1.45;;
7253;SDS011;4060;49.186;9.226;2022-07-06T01:52:09;1.63;;;1.40;;
7253;SDS011;4060;49.186;9.226;2022-07-06T01:54:40;1.65;;;1.40;;
7253;SDS011;4060;49.186;9.226;2022-07-06T01:57:10;1.83;;;1.60;;
7253;SDS011;4060;49.186;9.226;2022-07-06T01:59:40;1.60;;;1.50;;
7253;SDS011;4060;49.186;9.226;2022-07-06T02:02:09;1.60;;;1.50;;
7253;SDS011;4060;49.186;9.226;2022-07-06T02:04:39;2.55;;;1.60;;
7253;SDS011;4060;49.186;9.226;2022-07-06T02:07:08;1.75;;;1.65;;
7253;SDS011;4060;49.186;9.226;2022-07-06T02:09:40;1.65;;;1.55;;
7253;SDS011;4060;49.186;9.226;2022-07-06T02:12:10;1.60;;;1.50;;
7253;SDS011;4060;49.186;9.226;2022-07-06T02:14:39;1.55;;;1.45;;
7253;SDS011;4060;49.186;9.226;2022-07-06T02:17:08;1.80;;;1.70;;
7253;SDS011;4060;49.186;9.226;2022-07-06T02:19:38;1.95;;;1.73;;
7253;SDS011;4060;49.186;9.226;2022-07-06T02:22:07;2.53;;;1.58;;
7253;SDS011;4060;49.186;9.226;2022-07-06T02:24:37;2.55;;;1.40;;
7253;SDS011;4060;49.186;9.226;2022-07-06T02:27:08;2.17;;;1.40;;
7253;SDS011;4060;49.186;9.226;2022-07-06T02:29:38;1.77;;;1.63;;
7253;SDS011;4060;49.186;9.226;2022-07-06T02:32:07;1.67;;;1.58;;
7253;SDS011;4060;49.186;9.226;2022-07-06T02:34:37;1.88;;;1.58;;
7253;SDS011;4060;49.186;9.226;2022-07-06T02:37:07;1.48;;;1.23;;
7253;SDS011;4060;49.186;9.226;2022-07-06T02:39:36;2.85;;;1.88;;
7253;SDS011;4060;49.186;9.226;2022-07-06T02:42:08;1.58;;;1.48;;
7253;SDS011;4060;49.186;9.226;2022-07-06T02:44:37;1.40;;;1.20;;
7253;SDS011;4060;49.186;9.226;2022-07-06T02:47:07;1.60;;;1.50;;
7253;SDS011;4060;49.186;9.226;2022-07-06T02:49:37;2.67;;;1.60;;
7253;SDS011;4060;49.186;9.226;2022-07-06T02:52:06;2.10;;;1.40;;
7253;SDS011;4060;49.186;9.226;2022-07-06T02:54:36;1.50;;;1.40;;
7253;SDS011;4060;49.186;9.226;2022-07-06T02:57:08;2.15;;;1.80;;
7253;SDS011;4060;49.186;9.226;2022-07-06T02:59:38;2.90;;;1.42;;
7253;SDS011;4060;49.186;9.226;2022-07-06T03:02:08;1.75;;;1.35;;
7253;SDS011;4060;49.186;9.226;2022-07-06T03:04:37;1.63;;;1.52;;
7253;SDS011;4060;49.186;9.226;2022-07-06T03:07:07;1.17;;;1.08;;
7253;SDS011;4060;49.186;9.226;2022-07-06T03:09:36;1.20;;;1.10;;
7253;SDS011;4060;49.186;9.226;2022-07-06T03:12:08;1.65;;;1.52;;
7253;SDS011;4060;49.186;9.226;2022-07-06T03:14:37;1.45;;;1.30;;
7253;SDS011;4060;49.186;9.226;2022-07-06T03:17:07;2.50;;;1.98;;
7253;SDS011;4060;49.186;9.226;2022-07-06T03:19:37;2.00;;;1.48;;
7253;SDS011;4060;49.186;9.226;2022-07-06T03:22:06;1.88;;;1.40;;
7253;SDS011;4060;49.186;9.226;2022-07-06T03:24:36;2.20;;;1.70;;
7253;SDS011;4060;49.186;9.226;2022-07-06T03:27:07;1.70;;;1.60;;
7253;SDS011;4060;49.186;9.226;2022-07-06T03:29:36;1.40;;;1.30;;
7253;SDS011;4060;49.186;9.226;2022-07-06T03:32:06;2.22;;;1.42;;
7253;SDS011;4060;49.186;9.226;2022-07-06T03:34:36;1.50;;;1.30;;
7253;SDS011;4060;49.186;9.226;2022-07-06T03:37:06;1.80;;;1.55;;
7253;SDS011;4060;49.186;9.226;2022-07-06T03:39:35;2.38;;;1.40;;
7253;SDS011;4060;49.186;9.226;2022-07-06T03:42:05;1.38;;;1.25;;
7253;SDS011;4060;49.186;9.226;2022-07-06T03:44:36;1.92;;;1.48;;
7253;SDS011;4060;49.186;9.226;2022-07-06T03:47:06;1.70;;;1.55;;
7253;SDS011;4060;49.186;9.226;2022-07-06T03:49:35;1.63;;;1.52;;
7253;SDS011;4060;49.186;9.226;2022-07-06T03:52:05;2.70;;;1.50;;
7253;SDS011;4060;49.186;9.226;2022-07-06T03:54:34;1.42;;;1.33;;
7253;SDS011;4060;49.186;9.226;2022-07-06T03:57:04;2.15;;;1.35;;
7253;SDS011;4060;49.186;9.226;2022-07-06T03:59:36;1.90;;;1.70;;
7253;SDS011;4060;49.186;9.226;2022-07-06T04:02:06;1.92;;;1.60;;
7253;SDS011;4060;49.186;9.226;2022-07-06T04:04:35;1.77;;;1.60;;
7253;SDS011;4060;49.186;9.226;2022-07-06T04:07:04;1.95;;;1.60;;
7253;SDS011;4060;49.186;9.226;2022-07-06T04:09:34;2.08;;;1.50;;
7253;SDS011;4060;49.186;9.226;2022-07-06T04:12:03;3.25;;;1.52;;
7253;SDS011;4060;49.186;9.226;2022-07-06T04:14:33;2.13;;;1.70;;
7253;SDS011;4060;49.186;9.226;2022-07-06T04:17:05;1.65;;;1.55;;
7253;SDS011;4060;49.186;9.226;2022-07-06T04:19:47;2.28;;;1.63;;
7253;SDS011;4060;49.186;9.226;2022-07-06T04:22:16;3.03;;;1.80;;
7253;SDS011;4060;49.186;9.226;2022-07-06T04:24:46;2.28;;;1.67;;
7253;SDS011;4060;49.186;9.226;2022-07-06T04:27:15;1.75;;;1.55;;
7253;SDS011;4060;49.186;9.226;2022-07-06T04:29:47;2.63;;;1.60;;
7253;SDS011;4060;49.186;9.226;2022-07-06T04:32:16;1.80;;;1.70;;
7253;SDS011;4060;49.186;9.226;2022-07-06T04:34:46;1.52;;;1.42;;
7253;SDS011;4060;49.186;9.226;2022-07-06T04:37:16;2.80;;;2.28;;
7253;SDS011;4060;49.186;9.226;2022-07-06T04:39:45;2.72;;;1.92;;
7253;SDS011;4060;49.186;9.226;2022-07-06T04:42:15;2.83;;;2.03;;
7253;SDS011;4060;49.186;9.226;2022-07-06T04:44:46;2.42;;;1.88;;
7253;SDS011;4060;49.186;9.226;2022-07-06T04:47:17;2.13;;;1.40;;
7253;SDS011;4060;49.186;9.226;2022-07-06T04:49:47;1.50;;;1.40;;
7253;SDS011;4060;49.186;9.226;2022-07-06T04:52:17;1.38;;;1.27;;
7253;SDS011;4060;49.186;9.226;2022-07-06T04:54:47;2.90;;;1.67;;
7253;SDS011;4060;49.186;9.226;2022-07-06T04:57:16;1.98;;;1.60;;
7253;SDS011;4060;49.186;9.226;2022-07-06T04:59:48;1.60;;;1.50;;
7253;SDS011;4060;49.186;9.226;2022-07-06T05:02:17;3.35;;;1.60;;
7253;SDS011;4060;49.186;9.226;2022-07-06T05:04:47;1.50;;;1.40;;
7253;SDS011;4060;49.186;9.226;2022-07-06T05:07:16;2.80;;;1.75;;
7253;SDS011;4060;49.186;9.226;2022-07-06T05:09:46;1.80;;;1.42;;
7253;SDS011;4060;49.186;9.226;2022-07-06T05:12:16;1.60;;;1.50;;
7253;SDS011;4060;49.186;9.226;2022-07-06T05:14:47;2.05;;;1.85;;
7253;SDS011;4060;49.186;9.226;2022-07-06T05:17:17;2.42;;;1.80;;
7253;SDS011;4060;49.186;9.226;2022-07-06T05:19:47;3.63;;;1.67;;
7253;SDS011;4060;49.186;9.226;2022-07-06T05:22:16;3.03;;;1.60;;
7253;SDS011;4060;49.186;9.226;2022-07-06T05:24:46;1.77;;;1.42;;
7253;SDS011;4060;49.186;9.226;2022-07-06T05:27:15;2.97;;;1.60;;
7253;SDS011;4060;49.186;9.226;2022-07-06T05:29:45;2.20;;;1.70;;
7253;SDS011;4060;49.186;9.226;2022-07-06T05:32:16;1.58;;;1.48;;
7253;SDS011;4060;49.186;9.226;2022-07-06T05:34:45;2.33;;;1.63;;
7253;SDS011;4060;49.186;9.226;2022-07-06T05:37:15;2.20;;;2.00;;
7253;SDS011;4060;49.186;9.226;2022-07-06T05:39:44;1.42;;;1.33;;
7253;SDS011;4060;49.186;9.226;2022-07-06T05:42:15;1.70;;;1.50;;
7253;SDS011;4060;49.186;9.226;2022-07-06T05:44:48;2.55;;;1.70;;
7253;SDS011;4060;49.186;9.226;2022-07-06T05:47:17;2.22;;;1.45;;
7253;SDS011;4060;49.186;9.226;2022-07-06T05:50:03;2.00;;;1.40;;
7253;SDS011;4060;49.186;9.226;2022-07-06T05:52:44;2.08;;;1.70;;
7253;SDS011;4060;49.186;9.226;2022-07-06T05:55:23;2.58;;;1.95;;
7253;SDS011;4060;49.186;9.226;2022-07-06T05:57:54;1.70;;;1.60;;
7253;SDS011;4060;49.186;9.226;2022-07-06T06:00:25;2.45;;;1.80;;
7253;SDS011;4060;49.186;9.226;2022-07-06T06:02:55;1.90;;;1.52;;
7253;SDS011;4060;49.186;9.226;2022-07-06T06:05:26;3.28;;;1.77;;
7253;SDS011;4060;49.186;9.226;2022-07-06T06:07:55;2.55;;;1.92;;
7253;SDS011;4060;49.186;9.226;2022-07-06T06:10:25;2.25;;;1.40;;
7253;SDS011;4060;49.186;9.226;2022-07-06T06:12:54;3.45;;;1.67;;
7253;SDS011;4060;49.186;9.226;2022-07-06T06:15:26;2.10;;;1.90;;
7253;SDS011;4060;49.186;9.226;2022-07-06T06:17:55;1.50;;;1.40;;
7253;SDS011;4060;49.186;9.226;2022-07-06T06:20:24;2.05;;;1.85;;
7253;SDS011;4060;49.186;9.226;2022-07-06T06:22:55;3.53;;;1.40;;
7253;SDS011;4060;49.186;9.226;2022-07-06T06:25:29;1.75;;;1.50;;
7253;SDS011;4060;49.186;9.226;2022-07-06T06:28:01;1.63;;;1.52;;
7253;SDS011;4060;49.186;9.226;2022-07-06T06:30:33;2.25;;;1.77;;
7253;SDS011;4060;49.186;9.226;2022-07-06T06:33:09;3.00;;;1.83;;
7253;SDS011;4060;49.186;9.226;2022-07-06T06:35:42;2.47;;;1.70;;
7253;SDS011;4060;49.186;9.226;2022-07-06T06:38:13;2.10;;;1.58;;
7253;SDS011;4060;49.186;9.226;2022-07-06T06:40:43;2.50;;;1.50;;
7253;SDS011;4060;49.186;9.226;2022-07-06T06:43:13;2.47;;;1.50;;
7253;SDS011;4060;49.186;9.226;2022-07-06T06:45:44;2.58;;;1.75;;
7253;SDS011;4060;49.186;9.226;2022-07-06T06:48:14;2.03;;;1.70;;
7253;SDS011;4060;49.186;9.226;2022-07-06T06:50:45;3.28;;;1.50;;
7253;SDS011;4060;49.186;9.226;2022-07-06T06:53:15;1.67;;;1.45;;
7253;SDS011;4060;49.186;9.226;2022-07-06T06:55:44;1.90;;;1.50;;
7253;SDS011;4060;49.186;9.226;2022-07-06T06:58:13;2.22;;;1.45;;
7253;SDS011;4060;49.186;9.226;2022-07-06T07:00:45;1.58;;;1.42;;
7253;SDS011;4060;49.186;9.226;2022-07-06T07:03:14;2.60;;;1.60;;
7253;SDS011;4060;49.186;9.226;2022-07-06T07:05:44;3.22;;;1.60;;
7253;SDS011;4060;49.186;9.226;2022-07-06T07:08:14;1.98;;;1.40;;
7253;SDS011;4060;49.186;9.226;2022-07-06T07:10:45;2.25;;;1.50;;
7253;SDS011;4060;49.186;9.226;2022-07-06T07:13:15;2.53;;;1.58;;
7253;SDS011;4060;49.186;9.226;2022-07-06T07:15:46;1.92;;;1.40;;
7253;SDS011;4060;49.186;9.226;2022-07-06T07:18:16;1.95;;;1.27;;
7253;SDS011;4060;49.186;9.226;2022-07-06T07:20:45;2.95;;;1.38;;
7253;SDS011;4060;49.186;9.226;2022-07-06T07:23:15;2.28;;;1.42;;
7253;SDS011;4060;49.186;9.226;2022-07-06T07:25:44;1.67;;;1.38;;
7253;SDS011;4060;49.186;9.226;2022-07-06T07:28:14;1.63;;;1.52;;
7253;SDS011;4060;49.186;9.226;2022-07-06T07:30:46;1.20;;;1.20;;
7253;SDS011;4060;49.186;9.226;2022-07-06T07:33:16;1.50;;;1.40;;
7253;SDS011;4060;49.186;9.226;2022-07-06T07:35:45;1.58;;;1.45;;
7253;SDS011;4060;49.186;9.226;2022-07-06T07:38:15;2.03;;;1.50;;
7253;SDS011;4060;49.186;9.226;2022-07-06T07:40:44;1.58;;;1.38;;
7253;SDS011;4060;49.186;9.226;2022-07-06T07:43:14;1.40;;;1.30;;
7253;SDS011;4060;49.186;9.226;2022-07-06T07:45:43;1.92;;;1.40;;
7253;SDS011;4060;49.186;9.226;2022-07-06T07:48:15;2.08;;;1.50;;
7253;SDS011;4060;49.186;9.226;2022-07-06T07:50:45;1.95;;;1.23;;
7253;SDS011;4060;49.186;9.226;2022-07-06T07:53:14;1.98;;;1.25;;
7253;SDS011;4060;49.186;9.226;2022-07-06T07:55:44;1.48;;;1.30;;
7253;SDS011;4060;49.186;9.226;2022-07-06T07:58:14;1.67;;;1.20;;
7253;SDS011;4060;49.186;9.226;2022-07-06T08:00:43;2.53;;;1.42;;
7253;SDS011;4060;49.186;9.226;2022-07-06T08:03:14;1.83;;;1.25;;
7253;SDS011;4060;49.186;9.226;2022-07-06T08:05:44;2.17;;;1.40;;
7253;SDS011;4060;49.186;9.226;2022-07-06T08:08:14;1.42;;;1.33;;
7253;SDS011;4060;49.186;9.226;2022-07-06T08:10:44;2.05;;;1.25;;
7253;SDS011;4060;49.186;9.226;2022-07-06T08:13:13;1.70;;;1.05;;
7253;SDS011;4060;49.186;9.226;2022-07-06T08:15:43;1.75;;;1.20;;
7253;SDS011;4060;49.186;9.226;2022-07-06T08:18:14;1.45;;;1.35;;
7253;SDS011;4060;49.186;9.226;2022-07-06T08:20:43;2.20;;;1.23;;
7253;SDS011;4060;49.186;9.226;2022-07-06T08:23:13;1.50;;;1.40;;
7253;SDS011;4060;49.186;9.226;2022-07-06T08:25:42;2.03;;;1.40;;
7253;SDS011;4060;49.186;9.226;2022-07-06T08:28:11;1.17;;;1.08;;
7253;SDS011;4060;49.186;9.226;2022-07-06T08:30:41;1.95;;;1.00;;
7253;SDS011;4060;49.186;9.226;2022-07-06T08:33:10;1.52;;;1.42;;
7253;SDS011;4060;49.186;9.226;2022-07-06T08:35:42;1.23;;;1.00;;
7253;SDS011;4060;49.186;9.226;2022-07-06T08:38:11;1.73;;;1.30;;
7253;SDS011;4060;49.186;9.226;2022-07-06T08:40:41;1.27;;;0.98;;
7253;SDS011;4060;49.186;9.226;2022-07-06T08:43:15;1.42;;;1.33;;
7253;SDS011;4060;49.186;9.226;2022-07-06T08:45:45;2.03;;;1.20;;
7253;SDS011;4060;49.186;9.226;2022-07-06T08:48:19;1.92;;;1.20;;
7253;SDS011;4060;49.186;9.226;2022-07-06T08:50:52;1.95;;;0.98;;
7253;SDS011;4060;49.186;9.226;2022-07-06T08:53:22;3.58;;;1.48;;
7253;SDS011;4060;49.186;9.226;2022-07-06T08:55:53;2.38;;;1.48;;
7253;SDS011;4060;49.186;9.226;2022-07-06T08:58:23;3.88;;;1.60;;
7253;SDS011;4060;49.186;9.226;2022-07-06T09:00:54;3.85;;;1.45;;
7253;SDS011;4060;49.186;9.226;2022-07-06T09:03:26;1.60;;;1.30;;
7253;SDS011;4060;49.186;9.226;2022-07-06T09:05:58;2.08;;;1.40;;
7253;SDS011;4060;49.186;9.226;2022-07-06T09:08:30;2.05;;;1.50;;
7253;SDS011;4060;49.186;9.226;2022-07-06T09:11:03;2.95;;;1.27;;
7253;SDS011;4060;49.186;9.226;2022-07-06T09:13:33;1.30;;;1.20;;
7253;SDS011;4060;49.186;9.226;2022-07-06T09:16:09;2.40;;;1.20;;
7253;SDS011;4060;49.186;9.226;2022-07-06T09:18:43;1.67;;;1.25;;
7253;SDS011;4060;49.186;9.226;2022-07-06T09:21:17;1.70;;;1.10;;
7253;SDS011;4060;49.186;9.226;2022-07-06T09:23:55;1.40;;;1.30;;
7253;SDS011;4060;49.186;9.226;2022-07-06T09:26:27;1.40;;;1.30;;
7253;SDS011;4060;49.186;9.226;2022-07-06T09:28:57;1.48;;;1.38;;
7253;SDS011;4060;49.186;9.226;2022-07-06T09:31:27;1.25;;;1.15;;
7253;SDS011;4060;49.186;9.226;2022-07-06T09:33:58;1.75;;;1.30;;
7253;SDS011;4060;49.186;9.226;2022-07-06T09:36:38;1.20;;;1.10;;
7253;SDS011;4060;49.186;9.226;2022-07-06T09:39:19;1.60;;;1.20;;
7253;SDS011;4060;49.186;9.226;2022-07-06T09:41:51;2.78;;;1.30;;
7253;SDS011;4060;49.186;9.226;2022-07-06T09:44:22;1.45;;;1.35;;
7253;SDS011;4060;49.186;9.226;2022-07-06T09:46:53;2.47;;;1.30;;
7253;SDS011;4060;49.186;9.226;2022-07-06T09:49:26;3.20;;;1.55;;
7253;SDS011;4060;49.186;9.226;2022-07-06T09:51:57;1.35;;;1.25;;
7253;SDS011;4060;49.186;9.226;2022-07-06T09:54:27;1.50;;;1.38;;
7253;SDS011;4060;49.186;9.226;2022-07-06T09:56:57;2.88;;;1.20;;
7253;SDS011;4060;49.186;9.226;2022-07-06T09:59:27;1.50;;;1.35;;
7253;SDS011;4060;49.186;9.226;2022-07-06T10:01:59;1.58;;;1.30;;
7253;SDS011;4060;49.186;9.226;2022-07-06T10:04:32;2.75;;;1.50;;
7253;SDS011;4060;49.186;9.226;2022-07-06T10:07:01;1.40;;;1.30;;
7253;SDS011;4060;49.186;9.226;2022-07-06T10:09:32;1.50;;;1.40;;
7253;SDS011;4060;49.186;9.226;2022-07-06T10:12:02;1.73;;;1.10;;
7253;SDS011;4060;49.186;9.226;2022-07-06T10:14:33;1.88;;;1.60;;
7253;SDS011;4060;49.186;9.226;2022-07-06T10:17:03;2.15;;;1.40;;
7253;SDS011;4060;49.186;9.226;2022-07-06T10:19:34;1.55;;;1.42;;
7253;SDS011;4060;49.186;9.226;2022-07-06T10:22:04;1.98;;;1.52;;
7253;SDS011;4060;49.186;9.226;2022-07-06T10:24:34;1.40;;;1.30;;
7253;SDS011;4060;49.186;9.226;2022-07-06T10:27:09;3.38;;;1.40;;
7253;SDS011;4060;49.186;9.226;2022-07-06T10:29:40;1.50;;;1.40;;
7253;SDS011;4060;49.186;9.226;2022-07-06T10:32:10;2.17;;;1.42;;
7253;SDS011;4060;49.186;9.226;2022-07-06T10:34:41;2.67;;;1.40;;
7253;SDS011;4060;49.186;9.226;2022-07-06T10:37:14;3.05;;;1.45;;
7253;SDS011;4060;49.186;9.226;2022-07-06T10:39:52;4.88;;;1.17;;
7253;SDS011;4060;49.186;9.226;2022-07-06T10:42:42;1.55;;;1.42;;
7253;SDS011;4060;49.186;9.226;2022-07-06T10:45:13;1.45;;;1.35;;
7253;SDS011;4060;49.186;9.226;2022-07-06T10:47:44;2.22;;;1.33;;
7253;SDS011;4060;49.186;9.226;2022-07-06T10:50:17;1.30;;;1.20;;
7253;SDS011;4060;49.186;9.226;2022-07-06T10:52:50;1.40;;;1.15;;
7253;SDS011;4060;49.186;9.226;2022-07-06T10:55:30;2.30;;;1.50;;
7253;SDS011;4060;49.186;9.226;2022-07-06T10:58:00;2.08;;;1.27;;
7253;SDS011;4060;49.186;9.226;2022-07-06T11:00:50;1.45;;;1.30;;
7253;SDS011;4060;49.186;9.226;2022-07-06T11:03:33;2.30;;;1.27;;
7253;SDS011;4060;49.186;9.226;2022-07-06T11:06:16;3.38;;;1.33;;
7253;SDS011;4060;49.186;9.226;2022-07-06T11:08:47;2.45;;;1.50;;
7253;SDS011;4060;49.186;9.226;2022-07-06T11:11:18;2.00;;;1.13;;
7253;SDS011;4060;49.186;9.226;2022-07-06T11:13:49;3.97;;;1.30;;
7253;SDS011;4060;49.186;9.226;2022-07-06T11:16:23;1.85;;;1.40;;
7253;SDS011;4060;49.186;9.226;2022-07-06T11:19:03;2.17;;;2.05;;
7253;SDS011;4060;49.186;9.226;2022-07-06T11:21:40;3.55;;;3.08;;
7253;SDS011;4060;49.186;9.226;2022-07-06T11:24:13;2.40;;;2.20;;
7253;SDS011;4060;49.186;9.226;2022-07-06T11:26:44;1.98;;;1.88;;
7253;SDS011;4060;49.186;9.226;2022-07-06T11:29:14;3.55;;;3.35;;
7253;SDS011;4060;49.186;9.226;2022-07-06T11:31:47;3.55;;;2.00;;
7253;SDS011;4060;49.186;9.226;2022-07-06T11:34:19;1.60;;;1.50;;
7253;SDS011;4060;49.186;9.226;2022-07-06T11:36:56;3.28;;;2.90;;
7253;SDS011;4060;49.186;9.226;2022-07-06T11:39:27;5.15;;;4.75;;
7253;SDS011;4060;49.186;9.226;2022-07-06T11:41:57;2.78;;;2.58;;
7253;SDS011;4060;49.186;9.226;2022-07-06T11:44:27;2.90;;;2.67;;
7253;SDS011;4060;49.186;9.226;2022-07-06T11:46:56;3.83;;;3.53;;
7253;SDS011;4060;49.186;9.226;2022-07-06T11:49:27;2.85;;;2.10;;
7253;SDS011;4060;49.186;9.226;2022-07-06T11:52:00;3.58;;;2.17;;
7253;SDS011;4060;49.186;9.226;2022-07-06T11:54:35;4.15;;;3.80;;
7253;SDS011;4060;49.186;9.226;2022-07-06T11:57:07;2.50;;;2.00;;
7253;SDS011;4060;49.186;9.226;2022-07-06T11:59:37;2.50;;;2.30;;
7253;SDS011;4060;49.186;9.226;2022-07-06T12:02:09;4.45;;;3.83;;
7253;SDS011;4060;49.186;9.226;2022-07-06T12:04:40;3.33;;;2.70;;
7253;SDS011;4060;49.186;9.226;2022-07-06T12:07:13;3.30;;;3.10;;
7253;SDS011;4060;49.186;9.226;2022-07-06T12:09:45;2.95;;;2.47;;
7253;SDS011;4060;49.186;9.226;2022-07-06T12:12:15;2.78;;;2.58;;
7253;SDS011;4060;49.186;9.226;2022-07-06T12:14:45;2.60;;;2.40;;
7253;SDS011;4060;49.186;9.226;2022-07-06T12:17:15;3.58;;;2.10;;
7253;SDS011;4060;49.186;9.226;2022-07-06T12:19:45;2.85;;;2.30;;
7253;SDS011;4060;49.186;9.226;2022-07-06T12:22:26;3.05;;;2.38;;
7253;SDS011;4060;49.186;9.226;2022-07-06T12:24:55;2.45;;;1.90;;
7253;SDS011;4060;49.186;9.226;2022-07-06T12:27:25;4.00;;;1.90;;
7253;SDS011;4060;49.186;9.226;2022-07-06T12:30:07;2.65;;;2.20;;
7253;SDS011;4060;49.186;9.226;2022-07-06T12:32:39;3.35;;;2.20;;
7253;SDS011;4060;49.186;9.226;2022-07-06T12:35:09;2.63;;;2.20;;
7253;SDS011;4060;49.186;9.226;2022-07-06T12:40:27;3.10;;;1.73;;
7253;SDS011;4060;49.186;9.226;2022-07-06T12:42:58;2.20;;;2.00;;
7253;SDS011;4060;49.186;9.226;2022-07-06T12:45:27;2.95;;;1.80;;
7253;SDS011;4060;49.186;9.226;2022-07-06T12:47:58;2.22;;;2.03;;
7253;SDS011;4060;49.186;9.226;2022-07-06T12:50:32;2.17;;;1.90;;
7253;SDS011;4060;49.186;9.226;2022-07-06T12:53:05;2.22;;;2.03;;
7253;SDS011;4060;49.186;9.226;2022-07-06T12:58:40;1.95;;;1.65;;
7253;SDS011;4060;49.186;9.226;2022-07-06T13:01:24;1.77;;;1.50;;
7253;SDS011;4060;49.186;9.226;2022-07-06T13:03:54;1.88;;;1.75;;
7253;SDS011;4060;49.186;9.226;2022-07-06T13:06:29;1.92;;;1.60;;
7253;SDS011;4060;49.186;9.226;2022-07-06T13:09:01;2.00;;;1.67;;
7253;SDS011;4060;49.186;9.226;2022-07-06T13:11:31;2.10;;;1.98;;
7253;SDS011;4060;49.186;9.226;2022-07-06T13:14:01;1.65;;;1.40;;
7253;SDS011;4060;49.186;9.226;2022-07-06T13:16:31;1.33;;;1.20;;
7253;SDS011;4060;49.186;9.226;2022-07-06T13:19:02;2.40;;;1.50;;
7253;SDS011;4060;49.186;9.226;2022-07-06T13:21:31;2.15;;;1.70;;
7253;SDS011;4060;49.186;9.226;2022-07-06T13:24:04;1.85;;;1.60;;
7253;SDS011;4060;49.186;9.226;2022-07-06T13:26:33;2.45;;;1.45;;
7253;SDS011;4060;49.186;9.226;2022-07-06T13:29:03;2.30;;;1.38;;
7253;SDS011;4060;49.186;9.226;2022-07-06T13:31:33;2.22;;;1.50;;
7253;SDS011;4060;49.186;9.226;2022-07-06T13:34:03;1.38;;;1.27;;
7253;SDS011;4060;49.186;9.226;2022-07-06T13:36:33;1.90;;;1.65;;
7253;SDS011;4060;49.186;9.226;2022-07-06T13:39:05;1.95;;;1.42;;
7253;SDS011;4060;49.186;9.226;2022-07-06T13:41:35;1.75;;;1.20;;
7253;SDS011;4060;49.186;9.226;2022-07-06T13:44:05;2.60;;;1.60;;
7253;SDS011;4060;49.186;9.226;2022-07-06T13:46:35;2.00;;;1.30;;
7253;SDS011;4060;49.186;9.226;2022-07-06T13:49:05;2.22;;;1.40;;
7253;SDS011;4060;49.186;9.226;2022-07-06T13:51:35;2.45;;;1.30;;
7253;SDS011;4060;49.186;9.226;2022-07-06T13:54:07;2.55;;;1.55;;
7253;SDS011;4060;49.186;9.226;2022-07-06T13:56:38;1.55;;;1.17;;
7253;SDS011;4060;49.186;9.226;2022-07-06T13:59:08;2.25;;;1.35;;
7253;SDS011;4060;49.186;9.226;2022-07-06T14:01:38;2.38;;;1.23;;
7253;SDS011;4060;49.186;9.226;2022-07-06T14:04:07;1.55;;;1.27;;
7253;SDS011;4060;49.186;9.226;2022-07-06T14:06:36;1.98;;;1.42;;
7253;SDS011;4060;49.186;9.226;2022-07-06T14:09:08;1.50;;;1.10;;
7253;SDS011;4060;49.186;9.226;2022-07-06T14:11:37;1.38;;;1.23;;
7253;SDS011;4060;49.186;9.226;2022-07-06T14:14:07;1.92;;;1.13;;
7253;SDS011;4060;49.186;9.226;2022-07-06T14:16:36;2.25;;;1.30;;
7253;SDS011;4060;49.186;9.226;2022-07-06T14:19:07;6.03;;;1.42;;
7253;SDS011;4060;49.186;9.226;2022-07-06T14:21:37;2.90;;;1.17;;
7253;SDS011;4060;49.186;9.226;2022-07-06T14:24:08;4.32;;;1.33;;
7253;SDS011;4060;49.186;9.226;2022-07-06T14:26:38;3.60;;;1.27;;
7253;SDS011;4060;49.186;9.226;2022-07-06T14:29:07;1.55;;;1.10;;
7253;SDS011;4060;49.186;9.226;2022-07-06T14:31:37;2.65;;;1.27;;
7253;SDS011;4060;49.186;9.226;2022-07-06T14:34:06;1.88;;;1.10;;
7253;SDS011;4060;49.186;9.226;2022-07-06T14:36:36;2.13;;;1.48;;
7253;SDS011;4060;49.186;9.226;2022-07-06T14:39:05;1.80;;;1.30;;
7253;SDS011;4060;49.186;9.226;2022-07-06T14:41:38;3.08;;;1.35;;
7253;SDS011;4060;49.186;9.226;2022-07-06T14:44:08;2.08;;;1.20;;
7253;SDS011;4060;49.186;9.226;2022-07-06T14:46:38;2.70;;;1.27;;
7253;SDS011;4060;49.186;9.226;2022-07-06T14:49:07;1.30;;;1.20;;
7253;SDS011;4060;49.186;9.226;2022-07-06T14:51:37;4.25;;;1.40;;
7253;SDS011;4060;49.186;9.226;2022-07-06T14:54:09;1.65;;;1.10;;
7253;SDS011;4060;49.186;9.226;2022-07-06T14:56:38;2.17;;;1.15;;
7253;SDS011;4060;49.186;9.226;2022-07-06T14:59:08;1.98;;;1.25;;
7253;SDS011;4060;49.186;9.226;2022-07-06T15:01:38;1.30;;;1.20;;
7253;SDS011;4060;49.186;9.226;2022-07-06T15:04:07;1.55;;;1.20;;
7253;SDS011;4060;49.186;9.226;2022-07-06T15:06:39;2.88;;;1.40;;
7253;SDS011;4060;49.186;9.226;2022-07-06T15:09:11;1.42;;;1.15;;
7253;SDS011;4060;49.186;9.226;2022-07-06T15:11:41;2.70;;;1.38;;
7253;SDS011;4060;49.186;9.226;2022-07-06T15:14:11;2.75;;;1.30;;
7253;SDS011;4060;49.186;9.226;2022-07-06T15:16:42;2.58;;;1.45;;
7253;SDS011;4060;49.186;9.226;2022-07-06T15:19:11;2.58;;;1.13;;
7253;SDS011;4060;49.186;9.226;2022-07-06T15:21:41;2.28;;;1.40;;
7253;SDS011;4060;49.186;9.226;2022-07-06T15:24:13;1.92;;;1.35;;
7253;SDS011;4060;49.186;9.226;2022-07-06T15:26:43;1.58;;;1.35;;
7253;SDS011;4060;49.186;9.226;2022-07-06T15:29:13;1.13;;;1.02;;
7253;SDS011;4060;49.186;9.226;2022-07-06T15:31:42;1.98;;;1.25;;
7253;SDS011;4060;49.186;9.226;2022-07-06T15:34:12;1.90;;;1.50;;
7253;SDS011;4060;49.186;9.226;2022-07-06T15:36:42;1.50;;;1.40;;
7253;SDS011;4060;49.186;9.226;2022-07-06T15:39:15;1.55;;;1.30;;
7253;SDS011;4060;49.186;9.226;2022-07-06T15:41:45;2.05;;;1.30;;
7253;SDS011;4060;49.186;9.226;2022-07-06T15:44:14;2.55;;;1.38;;